sensor_id;sensor_type;location;lat;lon;timestamp;pressure;altitude;pressure_sealevel;temperature;humidity
77739;BME280;66904;59.926;30.404;2023-04-15T00:03:32;102990.47;;;25.13;22.77
77739;BME280;66904;59.926;30.404;2023-04-15T00:08:33;102987.91;;;25.11;23.26
77739;BME280;66904;59.926;30.404;2023-04-15T00:13:43;102987.06;;;25.11;22.77
77739;BME280;66904;59.926;30.404;2023-04-15T00:18:43;102996.19;;;25.10;22.89
77739;BME280;66904;59.926;30.404;2023-04-15T00:23:44;103005.34;;;25.09;22.85
77739;BME280;66904;59.926;30.404;2023-04-15T00:28:48;103003.75;;;25.06;22.86
77739;BME280;66904;59.926;30.404;2023-04-15T00:33:49;103000.91;;;25.08;23.09
77739;BME280;66904;59.926;30.404;2023-04-15T00:38:49;102990.16;;;24.98;22.89
77739;BME280;66904;59.926;30.404;2023-04-15T00:43:50;103008.19;;;25.07;22.92
77739;BME280;66904;59.926;30.404;2023-04-15T00:48:51;103005.47;;;25.07;23.05
77739;BME280;66904;59.926;30.404;2023-04-15T00:53:52;103005.63;;;25.06;22.93
77739;BME280;66904;59.926;30.404;2023-04-15T00:58:53;102995.56;;;24.98;22.77
77739;BME280;66904;59.926;30.404;2023-04-15T01:03:55;103019.03;;;25.07;22.61
77739;BME280;66904;59.926;30.404;2023-04-15T01:08:59;103012.75;;;25.07;22.98
77739;BME280;66904;59.926;30.404;2023-04-15T01:14:00;103007.31;;;25.07;22.63
77739;BME280;66904;59.926;30.404;2023-04-15T01:19:01;103006.34;;;25.08;22.39
77739;BME280;66904;59.926;30.404;2023-04-15T01:24:06;103001.06;;;25.06;22.54
77739;BME280;66904;59.926;30.404;2023-04-15T01:29:08;103009.91;;;25.08;22.71
77739;BME280;66904;59.926;30.404;2023-04-15T01:34:08;103009.50;;;25.03;22.64
77739;BME280;66904;59.926;30.404;2023-04-15T01:39:09;102997.78;;;25.03;22.33
77739;BME280;66904;59.926;30.404;2023-04-15T01:44:10;103006.94;;;25.02;22.55
77739;BME280;66904;59.926;30.404;2023-04-15T01:49:10;103002.53;;;25.01;22.37
77739;BME280;66904;59.926;30.404;2023-04-15T01:54:11;102984.63;;;24.90;22.57
77739;BME280;66904;59.926;30.404;2023-04-15T01:59:12;103010.78;;;24.99;22.29
77739;BME280;66904;59.926;30.404;2023-04-15T02:04:13;103010.78;;;24.99;22.50
77739;BME280;66904;59.926;30.404;2023-04-15T02:09:17;103003.69;;;24.98;22.38
77739;BME280;66904;59.926;30.404;2023-04-15T02:14:17;103007.41;;;24.97;22.29
77739;BME280;66904;59.926;30.404;2023-04-15T02:19:18;103019.09;;;24.98;22.32
77739;BME280;66904;59.926;30.404;2023-04-15T02:24:18;103022.78;;;24.97;22.25
77739;BME280;66904;59.926;30.404;2023-04-15T02:29:19;103014.84;;;24.95;22.07
77739;BME280;66904;59.926;30.404;2023-04-15T02:34:19;103013.97;;;24.95;21.94
77739;BME280;66904;59.926;30.404;2023-04-15T02:39:20;103009.56;;;24.94;22.10
77739;BME280;66904;59.926;30.404;2023-04-15T02:44:21;103023.09;;;24.94;21.94
77739;BME280;66904;59.926;30.404;2023-04-15T02:49:28;103016.69;;;24.95;21.91
77739;BME280;66904;59.926;30.404;2023-04-15T02:54:31;103013.25;;;24.93;21.97
77739;BME280;66904;59.926;30.404;2023-04-15T02:59:33;103025.81;;;24.94;21.99
77739;BME280;66904;59.926;30.404;2023-04-15T03:04:33;103014.03;;;24.85;22.13
77739;BME280;66904;59.926;30.404;2023-04-15T03:09:34;103017.00;;;24.92;22.15
77739;BME280;66904;59.926;30.404;2023-04-15T03:14:35;103014.91;;;24.86;21.98
77739;BME280;66904;59.926;30.404;2023-04-15T03:19:36;103029.50;;;24.93;21.82
77739;BME280;66904;59.926;30.404;2023-04-15T03:24:36;103028.69;;;24.92;21.64
77739;BME280;66904;59.926;30.404;2023-04-15T03:29:37;103035.09;;;24.91;21.88
77739;BME280;66904;59.926;30.404;2023-04-15T03:34:49;103026.66;;;24.94;21.58
77739;BME280;66904;59.926;30.404;2023-04-15T03:39:50;103036.09;;;24.90;22.00
77739;BME280;66904;59.926;30.404;2023-04-15T03:44:50;103021.72;;;24.80;21.90
77739;BME280;66904;59.926;30.404;2023-04-15T03:49:51;103025.88;;;24.84;21.65
77739;BME280;66904;59.926;30.404;2023-04-15T03:54:51;103046.06;;;24.90;21.69
77739;BME280;66904;59.926;30.404;2023-04-15T03:59:52;103049.78;;;24.89;21.91
77739;BME280;66904;59.926;30.404;2023-04-15T04:04:52;103045.38;;;24.88;21.74
77739;BME280;66904;59.926;30.404;2023-04-15T04:09:53;103050.78;;;24.88;22.02
77739;BME280;66904;59.926;30.404;2023-04-15T04:14:53;103032.53;;;24.80;21.79
77739;BME280;66904;59.926;30.404;2023-04-15T04:19:54;103049.94;;;24.87;21.70
77739;BME280;66904;59.926;30.404;2023-04-15T04:24:54;103044.81;;;24.84;21.76
77739;BME280;66904;59.926;30.404;2023-04-15T04:29:55;103052.09;;;24.84;21.78
77739;BME280;66904;59.926;30.404;2023-04-15T04:34:56;103040.84;;;24.79;21.37
77739;BME280;66904;59.926;30.404;2023-04-15T04:39:56;103051.50;;;24.80;21.87
77739;BME280;66904;59.926;30.404;2023-04-15T04:44:57;103047.06;;;24.79;21.60
77739;BME280;66904;59.926;30.404;2023-04-15T04:49:57;103052.50;;;24.79;21.38
77739;BME280;66904;59.926;30.404;2023-04-15T04:54:58;103057.22;;;24.77;21.51
77739;BME280;66904;59.926;30.404;2023-04-15T04:59:58;103063.63;;;24.76;21.58
77739;BME280;66904;59.926;30.404;2023-04-15T05:04:59;103066.50;;;24.75;21.41
77739;BME280;66904;59.926;30.404;2023-04-15T05:10:00;103055.09;;;24.71;21.41
77739;BME280;66904;59.926;30.404;2023-04-15T05:15:00;103064.94;;;24.72;21.43
77739;BME280;66904;59.926;30.404;2023-04-15T05:20:02;103071.75;;;24.76;21.00
77739;BME280;66904;59.926;30.404;2023-04-15T05:25:03;103069.59;;;24.80;21.32
77739;BME280;66904;59.926;30.404;2023-04-15T05:30:04;103068.31;;;24.84;21.30
77739;BME280;66904;59.926;30.404;2023-04-15T05:35:05;103072.75;;;24.85;21.14
77739;BME280;66904;59.926;30.404;2023-04-15T05:40:07;103067.34;;;24.85;21.12
77739;BME280;66904;59.926;30.404;2023-04-15T05:45:10;103057.50;;;24.84;21.34
77739;BME280;66904;59.926;30.404;2023-04-15T05:50:10;103066.34;;;24.86;21.40
77739;BME280;66904;59.926;30.404;2023-04-15T05:55:11;103065.31;;;24.87;21.72
77739;BME280;66904;59.926;30.404;2023-04-15T06:00:12;103074.16;;;24.89;22.06
77739;BME280;66904;59.926;30.404;2023-04-15T06:05:12;103076.25;;;24.95;22.24
77739;BME280;66904;59.926;30.404;2023-04-15T06:10:13;103078.50;;;24.99;22.34
77739;BME280;66904;59.926;30.404;2023-04-15T06:15:14;103082.50;;;25.05;22.48
77739;BME280;66904;59.926;30.404;2023-04-15T06:20:14;103077.75;;;25.07;22.66
77739;BME280;66904;59.926;30.404;2023-04-15T06:25:15;103091.16;;;25.08;22.29
77739;BME280;66904;59.926;30.404;2023-04-15T06:30:16;103073.38;;;24.96;22.21
77739;BME280;66904;59.926;30.404;2023-04-15T06:35:16;103086.50;;;25.01;22.12
77739;BME280;66904;59.926;30.404;2023-04-15T06:40:17;103077.81;;;24.97;22.25
77739;BME280;66904;59.926;30.404;2023-04-15T06:45:17;103063.63;;;24.86;22.10
77739;BME280;66904;59.926;30.404;2023-04-15T06:50:18;103077.44;;;24.92;22.11
77739;BME280;66904;59.926;30.404;2023-04-15T06:55:18;103078.41;;;24.91;22.01
77739;BME280;66904;59.926;30.404;2023-04-15T07:00:19;103079.28;;;24.92;22.05
77739;BME280;66904;59.926;30.404;2023-04-15T07:05:20;103080.41;;;24.89;21.93
77739;BME280;66904;59.926;30.404;2023-04-15T07:10:20;103086.84;;;24.88;22.18
77739;BME280;66904;59.926;30.404;2023-04-15T07:15:21;103088.53;;;24.89;22.05
77739;BME280;66904;59.926;30.404;2023-04-15T07:20:22;103086.38;;;24.93;22.15
77739;BME280;66904;59.926;30.404;2023-04-15T07:25:23;103083.91;;;24.99;21.79
77739;BME280;66904;59.926;30.404;2023-04-15T07:30:23;103089.03;;;25.02;22.14
77739;BME280;66904;59.926;30.404;2023-04-15T07:35:24;103090.31;;;25.08;22.09
77739;BME280;66904;59.926;30.404;2023-04-15T07:40:26;103096.41;;;25.10;21.95
77739;BME280;66904;59.926;30.404;2023-04-15T07:45:27;103107.81;;;25.13;21.98
77739;BME280;66904;59.926;30.404;2023-04-15T07:50:28;103098.25;;;25.09;21.89
77739;BME280;66904;59.926;30.404;2023-04-15T07:55:28;103098.56;;;25.06;21.79
77739;BME280;66904;59.926;30.404;2023-04-15T08:00:29;103097.56;;;25.07;21.85
77739;BME280;66904;59.926;30.404;2023-04-15T08:05:31;103104.16;;;25.05;21.87
77739;BME280;66904;59.926;30.404;2023-04-15T08:10:32;103092.34;;;24.96;21.55
77739;BME280;66904;59.926;30.404;2023-04-15T08:15:32;103093.38;;;24.95;21.56
77739;BME280;66904;59.926;30.404;2023-04-15T08:20:33;103094.66;;;24.91;21.54
77739;BME280;66904;59.926;30.404;2023-04-15T08:25:33;103096.81;;;24.88;21.16
77739;BME280;66904;59.926;30.404;2023-04-15T08:30:34;103083.59;;;24.85;21.42
77739;BME280;66904;59.926;30.404;2023-04-15T08:35:34;103088.53;;;24.89;21.64
77739;BME280;66904;59.926;30.404;2023-04-15T08:40:41;103086.38;;;24.93;21.37
77739;BME280;66904;59.926;30.404;2023-04-15T08:45:43;103083.84;;;24.91;21.30
77739;BME280;66904;59.926;30.404;2023-04-15T08:50:46;103078.13;;;24.94;21.28
77739;BME280;66904;59.926;30.404;2023-04-15T08:55:51;103083.91;;;24.99;21.39
77739;BME280;66904;59.926;30.404;2023-04-15T09:00:52;103075.50;;;25.02;21.66
77739;BME280;66904;59.926;30.404;2023-04-15T09:05:53;103074.91;;;25.08;22.17
77739;BME280;66904;59.926;30.404;2023-04-15T09:10:54;103079.56;;;25.16;22.47
77739;BME280;66904;59.926;30.404;2023-04-15T09:15:55;103080.34;;;25.26;23.12
77739;BME280;66904;59.926;30.404;2023-04-15T09:21:11;103091.34;;;25.42;23.77
77739;BME280;66904;59.926;30.404;2023-04-15T09:26:12;103068.22;;;25.48;23.05
77739;BME280;66904;59.926;30.404;2023-04-15T09:31:16;103070.66;;;25.51;23.48
77739;BME280;66904;59.926;30.404;2023-04-15T09:36:18;103069.50;;;25.53;24.00
77739;BME280;66904;59.926;30.404;2023-04-15T09:41:18;103059.66;;;25.52;24.09
77739;BME280;66904;59.926;30.404;2023-04-15T09:46:19;103062.75;;;25.57;24.37
77739;BME280;66904;59.926;30.404;2023-04-15T09:51:33;103068.72;;;25.61;25.47
77739;BME280;66904;59.926;30.404;2023-04-15T09:56:38;103056.34;;;25.58;25.03
77739;BME280;66904;59.926;30.404;2023-04-15T10:01:41;103069.59;;;25.61;24.52
77739;BME280;66904;59.926;30.404;2023-04-15T10:06:42;103061.44;;;25.61;24.65
77739;BME280;66904;59.926;30.404;2023-04-15T10:11:43;103063.13;;;25.62;24.67
77739;BME280;66904;59.926;30.404;2023-04-15T10:16:46;103065.69;;;25.64;24.35
77739;BME280;66904;59.926;30.404;2023-04-15T10:21:48;103064.84;;;25.63;24.26
77739;BME280;66904;59.926;30.404;2023-04-15T10:26:51;103054.84;;;25.64;23.60
77739;BME280;66904;59.926;30.404;2023-04-15T10:31:54;103052.84;;;25.66;23.54
77739;BME280;66904;59.926;30.404;2023-04-15T10:36:58;103058.13;;;25.67;23.56
77739;BME280;66904;59.926;30.404;2023-04-15T10:42:17;103055.09;;;25.70;22.94
77739;BME280;66904;59.926;30.404;2023-04-15T10:47:20;103046.56;;;25.65;23.05
77739;BME280;66904;59.926;30.404;2023-04-15T10:52:25;103050.53;;;25.71;22.93
77739;BME280;66904;59.926;30.404;2023-04-15T10:57:33;103047.81;;;25.71;22.85
77739;BME280;66904;59.926;30.404;2023-04-15T11:02:47;103049.50;;;25.72;22.82
77739;BME280;66904;59.926;30.404;2023-04-15T11:07:53;103049.13;;;25.67;22.71
77739;BME280;66904;59.926;30.404;2023-04-15T11:12:59;103043.84;;;25.65;22.67
77739;BME280;66904;59.926;30.404;2023-04-15T11:18:18;103045.72;;;25.65;22.43
77739;BME280;66904;59.926;30.404;2023-04-15T11:23:34;103037.38;;;25.58;22.23
77739;BME280;66904;59.926;30.404;2023-04-15T11:28:36;103036.41;;;25.50;22.43
77739;BME280;66904;59.926;30.404;2023-04-15T11:33:45;103035.28;;;25.43;22.24
77739;BME280;66904;59.926;30.404;2023-04-15T11:38:46;103029.34;;;25.39;22.32
77739;BME280;66904;59.926;30.404;2023-04-15T11:43:47;103031.59;;;25.44;22.68
77739;BME280;66904;59.926;30.404;2023-04-15T11:48:47;103018.41;;;25.49;23.02
77739;BME280;66904;59.926;30.404;2023-04-15T11:53:49;103017.13;;;25.53;23.64
77739;BME280;66904;59.926;30.404;2023-04-15T11:58:52;103001.91;;;25.52;23.14
77739;BME280;66904;59.926;30.404;2023-04-15T12:03:53;103000.88;;;25.53;22.80
77739;BME280;66904;59.926;30.404;2023-04-15T12:14:21;102998.47;;;25.50;22.16
77739;BME280;66904;59.926;30.404;2023-04-15T12:19:34;102993.66;;;25.44;22.65
77739;BME280;66904;59.926;30.404;2023-04-15T12:24:36;102989.22;;;25.43;22.56
77739;BME280;66904;59.926;30.404;2023-04-15T12:29:38;102988.38;;;25.42;22.58
77739;BME280;66904;59.926;30.404;2023-04-15T12:34:52;102985.66;;;25.42;22.10
77739;BME280;66904;59.926;30.404;2023-04-15T12:39:55;102985.59;;;25.34;22.23
77739;BME280;66904;59.926;30.404;2023-04-15T12:44:56;102965.16;;;25.22;22.10
77739;BME280;66904;59.926;30.404;2023-04-15T12:49:57;102987.91;;;25.29;21.65
77739;BME280;66904;59.926;30.404;2023-04-15T12:54:57;102983.66;;;25.27;21.87
77739;BME280;66904;59.926;30.404;2023-04-15T12:59:59;102986.78;;;25.32;22.14
77739;BME280;66904;59.926;30.404;2023-04-15T13:04:59;102988.13;;;25.36;21.79
77739;BME280;66904;59.926;30.404;2023-04-15T13:10:00;102977.00;;;25.39;21.64
77739;BME280;66904;59.926;30.404;2023-04-15T13:15:02;102965.16;;;25.40;21.71
77739;BME280;66904;59.926;30.404;2023-04-15T13:20:03;102973.34;;;25.48;21.37
77739;BME280;66904;59.926;30.404;2023-04-15T13:25:04;102963.94;;;25.52;21.71
77739;BME280;66904;59.926;30.404;2023-04-15T13:30:05;102955.50;;;25.55;22.02
77739;BME280;66904;59.926;30.404;2023-04-15T13:35:07;102970.28;;;25.60;21.82
77739;BME280;66904;59.926;30.404;2023-04-15T13:40:08;102961.50;;;25.66;22.01
77739;BME280;66904;59.926;30.404;2023-04-15T13:45:09;102944.22;;;25.67;22.18
77739;BME280;66904;59.926;30.404;2023-04-15T13:50:09;102954.00;;;25.86;22.09
77739;BME280;66904;59.926;30.404;2023-04-15T13:55:10;102948.47;;;25.96;21.91
77739;BME280;66904;59.926;30.404;2023-04-15T14:00:11;102941.25;;;26.04;21.91
77739;BME280;66904;59.926;30.404;2023-04-15T14:05:12;102939.59;;;26.11;21.84
77739;BME280;66904;59.926;30.404;2023-04-15T14:10:12;102925.94;;;26.21;21.96
77739;BME280;66904;59.926;30.404;2023-04-15T14:15:13;102923.75;;;26.25;21.71
77739;BME280;66904;59.926;30.404;2023-04-15T14:20:13;102920.19;;;26.24;21.60
77739;BME280;66904;59.926;30.404;2023-04-15T14:25:14;102917.81;;;26.21;21.35
77739;BME280;66904;59.926;30.404;2023-04-15T14:30:14;102923.03;;;26.23;21.26
77739;BME280;66904;59.926;30.404;2023-04-15T14:35:15;102918.66;;;26.22;21.17
77739;BME280;66904;59.926;30.404;2023-04-15T14:40:16;102920.66;;;26.19;20.87
77739;BME280;66904;59.926;30.404;2023-04-15T14:45:16;102917.94;;;26.19;20.87
77739;BME280;66904;59.926;30.404;2023-04-15T14:50:17;102916.25;;;26.18;20.56
77739;BME280;66904;59.926;30.404;2023-04-15T14:55:18;102917.94;;;26.19;20.86
77739;BME280;66904;59.926;30.404;2023-04-15T15:00:18;102917.09;;;26.19;20.49
77739;BME280;66904;59.926;30.404;2023-04-15T15:05:19;102918.81;;;26.20;20.59
77739;BME280;66904;59.926;30.404;2023-04-15T15:10:20;102908.81;;;26.20;20.82
77739;BME280;66904;59.926;30.404;2023-04-15T15:15:21;102912.03;;;26.24;20.68
77739;BME280;66904;59.926;30.404;2023-04-15T15:20:22;102909.84;;;26.28;20.86
77739;BME280;66904;59.926;30.404;2023-04-15T15:25:23;102910.53;;;26.30;20.60
77739;BME280;66904;59.926;30.404;2023-04-15T15:30:23;102902.38;;;26.30;20.89
77739;BME280;66904;59.926;30.404;2023-04-15T15:35:24;102899.19;;;26.34;21.77
77739;BME280;66904;59.926;30.404;2023-04-15T15:40:25;102900.56;;;26.38;21.81
77739;BME280;66904;59.926;30.404;2023-04-15T15:45:26;102894.09;;;26.39;21.84
77739;BME280;66904;59.926;30.404;2023-04-15T15:50:27;102903.63;;;26.43;21.60
77739;BME280;66904;59.926;30.404;2023-04-15T15:55:27;102899.22;;;26.42;21.58
77739;BME280;66904;59.926;30.404;2023-04-15T16:00:28;102903.63;;;26.43;21.72
77739;BME280;66904;59.926;30.404;2023-04-15T16:05:28;102917.19;;;26.43;21.98
77739;BME280;66904;59.926;30.404;2023-04-15T16:10:29;102903.78;;;26.42;22.30
77739;BME280;66904;59.926;30.404;2023-04-15T16:15:29;102912.78;;;26.42;21.89
77739;BME280;66904;59.926;30.404;2023-04-15T16:20:30;102919.06;;;26.35;22.33
77739;BME280;66904;59.926;30.404;2023-04-15T16:25:31;102920.72;;;26.28;22.20
77739;BME280;66904;59.926;30.404;2023-04-15T16:30:37;102920.72;;;26.28;22.35
77739;BME280;66904;59.926;30.404;2023-04-15T16:35:38;102912.56;;;26.28;22.24
77739;BME280;66904;59.926;30.404;2023-04-15T16:40:38;102921.06;;;26.33;22.05
77739;BME280;66904;59.926;30.404;2023-04-15T16:45:39;102903.91;;;26.24;21.99
77739;BME280;66904;59.926;30.404;2023-04-15T16:50:40;102912.75;;;26.34;21.96
77739;BME280;66904;59.926;30.404;2023-04-15T16:55:40;102918.72;;;26.38;22.03
77739;BME280;66904;59.926;30.404;2023-04-15T17:00:41;102914.97;;;26.39;21.95
77739;BME280;66904;59.926;30.404;2023-04-15T17:05:41;102908.53;;;26.40;21.82
77739;BME280;66904;59.926;30.404;2023-04-15T17:10:42;102912.09;;;26.40;21.87
77739;BME280;66904;59.926;30.404;2023-04-15T17:15:42;102906.50;;;26.42;21.86
77739;BME280;66904;59.926;30.404;2023-04-15T17:20:43;102903.28;;;26.38;21.63
77739;BME280;66904;59.926;30.404;2023-04-15T17:25:43;102913.63;;;26.43;21.34
77739;BME280;66904;59.926;30.404;2023-04-15T17:30:44;102918.06;;;26.44;21.71
77739;BME280;66904;59.926;30.404;2023-04-15T17:35:45;102901.19;;;26.32;21.29
77739;BME280;66904;59.926;30.404;2023-04-15T17:40:45;102913.31;;;26.46;21.88
77739;BME280;66904;59.926;30.404;2023-04-15T17:45:46;102915.16;;;26.45;21.35
77739;BME280;66904;59.926;30.404;2023-04-15T17:50:46;102916.34;;;26.43;21.28
77739;BME280;66904;59.926;30.404;2023-04-15T17:55:47;102922.63;;;26.43;21.39
77739;BME280;66904;59.926;30.404;2023-04-15T18:00:49;102928.06;;;26.43;21.26
77739;BME280;66904;59.926;30.404;2023-04-15T18:05:49;102927.53;;;26.40;21.12
77739;BME280;66904;59.926;30.404;2023-04-15T18:10:50;102923.94;;;26.31;20.91
77739;BME280;66904;59.926;30.404;2023-04-15T18:15:51;102929.66;;;26.20;20.95
77739;BME280;66904;59.926;30.404;2023-04-15T18:20:51;102931.84;;;26.16;20.58
77739;BME280;66904;59.926;30.404;2023-04-15T18:25:52;102938.75;;;26.11;21.48
77739;BME280;66904;59.926;30.404;2023-04-15T18:30:53;102935.50;;;26.07;21.42
77739;BME280;66904;59.926;30.404;2023-04-15T18:35:53;102947.16;;;26.00;20.91
77739;BME280;66904;59.926;30.404;2023-04-15T18:40:55;102939.47;;;25.95;21.31
77739;BME280;66904;59.926;30.404;2023-04-15T18:45:55;102921.13;;;25.89;21.46
77739;BME280;66904;59.926;30.404;2023-04-15T18:50:56;102945.28;;;26.00;21.55
77739;BME280;66904;59.926;30.404;2023-04-15T18:55:57;102937.69;;;26.04;21.94
77739;BME280;66904;59.926;30.404;2023-04-15T19:01:03;102949.75;;;26.09;22.38
77739;BME280;66904;59.926;30.404;2023-04-15T19:06:04;102940.41;;;26.12;22.05
77739;BME280;66904;59.926;30.404;2023-04-15T19:11:04;102942.59;;;26.08;21.50
77739;BME280;66904;59.926;30.404;2023-04-15T19:16:05;102934.38;;;25.92;21.58
77739;BME280;66904;59.926;30.404;2023-04-15T19:21:05;102939.88;;;25.75;20.95
77739;BME280;66904;59.926;30.404;2023-04-15T19:26:06;102939.38;;;25.53;20.95
77739;BME280;66904;59.926;30.404;2023-04-15T19:31:07;102935.72;;;25.45;20.65
77739;BME280;66904;59.926;30.404;2023-04-15T19:36:08;102931.44;;;25.42;20.72
77739;BME280;66904;59.926;30.404;2023-04-15T19:41:09;102932.09;;;25.36;20.83
77739;BME280;66904;59.926;30.404;2023-04-15T19:46:10;102933.47;;;25.40;21.14
77739;BME280;66904;59.926;30.404;2023-04-15T19:51:12;102935.88;;;25.43;20.93
77739;BME280;66904;59.926;30.404;2023-04-15T19:56:12;102939.28;;;25.45;21.09
77739;BME280;66904;59.926;30.404;2023-04-15T20:01:13;102934.69;;;25.46;21.03
77739;BME280;66904;59.926;30.404;2023-04-15T20:06:14;102934.69;;;25.46;21.03
77739;BME280;66904;59.926;30.404;2023-04-15T20:11:14;102936.59;;;25.45;21.12
77739;BME280;66904;59.926;30.404;2023-04-15T20:16:17;102939.13;;;25.47;21.23
77739;BME280;66904;59.926;30.404;2023-04-15T20:21:18;102927.59;;;25.45;20.93
77739;BME280;66904;59.926;30.404;2023-04-15T20:26:18;102941.28;;;25.43;21.14
77739;BME280;66904;59.926;30.404;2023-04-15T20:31:21;102936.34;;;25.39;20.96
77739;BME280;66904;59.926;30.404;2023-04-15T20:36:21;102936.50;;;25.37;20.99
77739;BME280;66904;59.926;30.404;2023-04-15T20:41:22;102941.84;;;25.29;21.00
77739;BME280;66904;59.926;30.404;2023-04-15T20:46:23;102927.75;;;25.26;20.97
77739;BME280;66904;59.926;30.404;2023-04-15T20:51:23;102936.91;;;25.25;20.97
77739;BME280;66904;59.926;30.404;2023-04-15T20:56:24;102908.03;;;25.15;20.79
77739;BME280;66904;59.926;30.404;2023-04-15T21:01:24;102910.91;;;25.14;20.77
77739;BME280;66904;59.926;30.404;2023-04-15T21:06:25;102935.19;;;25.24;20.61
77739;BME280;66904;59.926;30.404;2023-04-15T21:11:26;102935.88;;;25.26;20.51
77739;BME280;66904;59.926;30.404;2023-04-15T21:16:27;102926.69;;;25.18;20.78
77739;BME280;66904;59.926;30.404;2023-04-15T21:21:28;102930.47;;;25.26;20.43
77739;BME280;66904;59.926;30.404;2023-04-15T21:26:28;102926.94;;;25.25;20.87
77739;BME280;66904;59.926;30.404;2023-04-15T21:31:29;102924.75;;;25.29;21.10
77739;BME280;66904;59.926;30.404;2023-04-15T21:36:30;102921.50;;;25.25;20.84
77739;BME280;66904;59.926;30.404;2023-04-15T21:41:31;102929.63;;;25.25;21.11
77739;BME280;66904;59.926;30.404;2023-04-15T21:46:32;102934.34;;;25.23;21.14
77739;BME280;66904;59.926;30.404;2023-04-15T21:51:32;102935.38;;;25.22;21.15
77739;BME280;66904;59.926;30.404;2023-04-15T21:56:33;102937.22;;;25.22;21.39
77739;BME280;66904;59.926;30.404;2023-04-15T22:01:33;102932.94;;;25.19;21.29
77739;BME280;66904;59.926;30.404;2023-04-15T22:06:34;102945.50;;;25.20;21.39
77739;BME280;66904;59.926;30.404;2023-04-15T22:11:35;102939.06;;;25.21;21.19
77739;BME280;66904;59.926;30.404;2023-04-15T22:16:35;102944.50;;;25.21;21.52
77739;BME280;66904;59.926;30.404;2023-04-15T22:21:36;102944.09;;;25.16;21.30
77739;BME280;66904;59.926;30.404;2023-04-15T22:26:37;102934.97;;;25.17;21.35
77739;BME280;66904;59.926;30.404;2023-04-15T22:31:38;102937.00;;;25.15;21.67
77739;BME280;66904;59.926;30.404;2023-04-15T22:36:38;102937.53;;;25.18;21.43
77739;BME280;66904;59.926;30.404;2023-04-15T22:41:43;102931.09;;;25.19;21.39
77739;BME280;66904;59.926;30.404;2023-04-15T22:46:49;102934.81;;;25.18;21.59
77739;BME280;66904;59.926;30.404;2023-04-15T22:51:50;102917.72;;;25.18;21.68
77739;BME280;66904;59.926;30.404;2023-04-15T22:56:51;102931.25;;;25.18;21.50
77739;BME280;66904;59.926;30.404;2023-04-15T23:01:51;102929.41;;;25.18;21.56
77739;BME280;66904;59.926;30.404;2023-04-15T23:06:52;102914.22;;;25.08;21.48
77739;BME280;66904;59.926;30.404;2023-04-15T23:11:53;102925.84;;;25.18;21.71
77739;BME280;66904;59.926;30.404;2023-04-15T23:16:56;102925.00;;;25.17;21.45
77739;BME280;66904;59.926;30.404;2023-04-15T23:21:57;102920.75;;;25.15;21.54
77739;BME280;66904;59.926;30.404;2023-04-15T23:26:57;102933.78;;;25.19;21.78
77739;BME280;66904;59.926;30.404;2023-04-15T23:31:58;102928.38;;;25.19;21.64
77739;BME280;66904;59.926;30.404;2023-04-15T23:36:58;102923.28;;;25.16;21.81
77739;BME280;66904;59.926;30.404;2023-04-15T23:41:59;102922.28;;;25.17;21.25
77739;BME280;66904;59.926;30.404;2023-04-15T23:47:05;102928.22;;;25.21;21.62
77739;BME280;66904;59.926;30.404;2023-04-15T23:52:06;102912.69;;;25.05;21.67
77739;BME280;66904;59.926;30.404;2023-04-15T23:57:07;102921.59;;;25.15;21.67
